weather.gov     
National Weather Service

Terminal Aerodrome Forecast
NWS Homepage
This page is being discontinued on March 12, 2014.
The same data is available at this site. Please update your bookmarks.
Thank you, and we apologize for the inconvenience.
Please send an email to SR-SRH.Webmaster@noaa.gov with any concerns.


Current Version
Previous Version:    01  02  03  04  05  06  07  08  09  10  11  12  13  14  15  16  17  18  19  20  21  22  23  24  25  26  27  28  29  30  
   31  32  33  
[Printable]
341
FTUS42 KFFC 012300
TAFMCN
TAF
KMCN 012340Z 0200/0224 05005KT P6SM BKN020
     FM020200 06005KT P6SM SCT025 BKN100
     FM020700 07003KT 5SM BR BKN012
     FM020900 07005KT 3SM BR OVC008
     FM021500 07004KT P6SM BKN015
     FM021700 06005KT P6SM BKN035 PROB30 0217/0223 -SHRA=


U.S. Dept. of Commerce
NOAA National Weather Service
1325 East West Highway
Silver Spring, MD 20910
E-mail: w-nws.webmaster@noaa.gov
Page last modified: May 16, 2007
NATIONAL WEATHER SERVICE: for Safety, for Work, for Fun - FOR LIFE